sensor_id;sensor_type;location;lat;lon;timestamp;P1;durP1;ratioP1;P2;durP2;ratioP2
38693;SDS011;24447;43.460;25.744;2023-08-31T00:00:06;9.05;;;4.25;;
38693;SDS011;24447;43.460;25.744;2023-08-31T00:02:35;5.50;;;2.85;;
38693;SDS011;24447;43.460;25.744;2023-08-31T00:05:02;8.27;;;3.47;;
38693;SDS011;24447;43.460;25.744;2023-08-31T00:07:30;8.27;;;3.20;;
38693;SDS011;24447;43.460;25.744;2023-08-31T00:09:57;6.15;;;3.53;;
38693;SDS011;24447;43.460;25.744;2023-08-31T00:12:23;4.85;;;2.92;;
38693;SDS011;24447;43.460;25.744;2023-08-31T00:14:50;14.95;;;3.88;;
38693;SDS011;24447;43.460;25.744;2023-08-31T00:17:16;9.90;;;3.47;;
38693;SDS011;24447;43.460;25.744;2023-08-31T00:19:45;9.38;;;4.68;;
38693;SDS011;24447;43.460;25.744;2023-08-31T00:22:11;6.50;;;3.47;;
38693;SDS011;24447;43.460;25.744;2023-08-31T00:24:37;11.93;;;4.85;;
38693;SDS011;24447;43.460;25.744;2023-08-31T00:27:03;11.05;;;4.63;;
38693;SDS011;24447;43.460;25.744;2023-08-31T00:29:31;10.27;;;4.85;;
38693;SDS011;24447;43.460;25.744;2023-08-31T00:31:57;8.63;;;4.22;;
38693;SDS011;24447;43.460;25.744;2023-08-31T00:34:23;7.47;;;3.53;;
38693;SDS011;24447;43.460;25.744;2023-08-31T00:36:49;12.68;;;4.95;;
38693;SDS011;24447;43.460;25.744;2023-08-31T00:39:15;8.50;;;4.78;;
38693;SDS011;24447;43.460;25.744;2023-08-31T00:44:11;8.30;;;3.08;;
38693;SDS011;24447;43.460;25.744;2023-08-31T00:46:37;8.75;;;4.97;;
38693;SDS011;24447;43.460;25.744;2023-08-31T00:49:03;8.70;;;4.57;;
38693;SDS011;24447;43.460;25.744;2023-08-31T00:51:29;7.55;;;3.90;;
38693;SDS011;24447;43.460;25.744;2023-08-31T00:53:55;11.02;;;5.60;;
38693;SDS011;24447;43.460;25.744;2023-08-31T00:56:24;11.35;;;4.90;;
38693;SDS011;24447;43.460;25.744;2023-08-31T00:58:51;9.00;;;4.40;;
38693;SDS011;24447;43.460;25.744;2023-08-31T01:04:08;11.52;;;4.70;;
38693;SDS011;24447;43.460;25.744;2023-08-31T01:07:04;9.00;;;4.60;;
38693;SDS011;24447;43.460;25.744;2023-08-31T01:12:34;15.05;;;4.80;;
38693;SDS011;24447;43.460;25.744;2023-08-31T01:15:03;8.07;;;4.25;;
38693;SDS011;24447;43.460;25.744;2023-08-31T01:17:32;7.53;;;3.97;;
38693;SDS011;24447;43.460;25.744;2023-08-31T01:19:59;11.57;;;5.20;;
38693;SDS011;24447;43.460;25.744;2023-08-31T01:25:05;11.82;;;3.75;;
38693;SDS011;24447;43.460;25.744;2023-08-31T01:27:34;12.75;;;4.55;;
38693;SDS011;24447;43.460;25.744;2023-08-31T01:30:01;7.57;;;3.83;;
38693;SDS011;24447;43.460;25.744;2023-08-31T01:32:30;8.85;;;3.70;;
38693;SDS011;24447;43.460;25.744;2023-08-31T01:34:57;9.40;;;4.82;;
38693;SDS011;24447;43.460;25.744;2023-08-31T01:37:45;9.32;;;4.15;;
38693;SDS011;24447;43.460;25.744;2023-08-31T01:42:46;7.68;;;4.18;;
38693;SDS011;24447;43.460;25.744;2023-08-31T01:45:14;9.32;;;4.75;;
38693;SDS011;24447;43.460;25.744;2023-08-31T01:47:42;10.82;;;4.72;;
38693;SDS011;24447;43.460;25.744;2023-08-31T01:50:08;17.33;;;5.03;;
38693;SDS011;24447;43.460;25.744;2023-08-31T01:52:35;11.18;;;5.63;;
38693;SDS011;24447;43.460;25.744;2023-08-31T01:55:01;8.75;;;4.00;;
38693;SDS011;24447;43.460;25.744;2023-08-31T01:57:30;7.70;;;4.03;;
38693;SDS011;24447;43.460;25.744;2023-08-31T01:59:57;14.68;;;4.53;;
38693;SDS011;24447;43.460;25.744;2023-08-31T02:02:23;9.27;;;3.97;;
38693;SDS011;24447;43.460;25.744;2023-08-31T02:04:49;7.93;;;4.03;;
38693;SDS011;24447;43.460;25.744;2023-08-31T02:07:16;7.85;;;3.60;;
38693;SDS011;24447;43.460;25.744;2023-08-31T02:09:42;5.00;;;3.30;;
38693;SDS011;24447;43.460;25.744;2023-08-31T02:12:08;8.65;;;4.65;;
38693;SDS011;24447;43.460;25.744;2023-08-31T02:14:37;11.48;;;5.43;;
38693;SDS011;24447;43.460;25.744;2023-08-31T02:17:03;8.30;;;3.83;;
38693;SDS011;24447;43.460;25.744;2023-08-31T02:19:30;9.32;;;4.47;;
38693;SDS011;24447;43.460;25.744;2023-08-31T02:21:55;7.72;;;3.83;;
38693;SDS011;24447;43.460;25.744;2023-08-31T02:24:21;7.78;;;3.78;;
38693;SDS011;24447;43.460;25.744;2023-08-31T02:26:48;12.57;;;4.88;;
38693;SDS011;24447;43.460;25.744;2023-08-31T02:29:14;6.90;;;3.47;;
38693;SDS011;24447;43.460;25.744;2023-08-31T02:31:40;9.60;;;4.18;;
38693;SDS011;24447;43.460;25.744;2023-08-31T02:34:07;10.50;;;4.93;;
38693;SDS011;24447;43.460;25.744;2023-08-31T02:36:33;7.05;;;3.88;;
38693;SDS011;24447;43.460;25.744;2023-08-31T02:38:58;5.65;;;3.22;;
38693;SDS011;24447;43.460;25.744;2023-08-31T02:41:24;8.73;;;4.95;;
38693;SDS011;24447;43.460;25.744;2023-08-31T02:43:51;6.07;;;3.67;;
38693;SDS011;24447;43.460;25.744;2023-08-31T02:46:17;7.47;;;3.70;;
38693;SDS011;24447;43.460;25.744;2023-08-31T02:48:43;7.28;;;4.25;;
38693;SDS011;24447;43.460;25.744;2023-08-31T02:51:10;11.05;;;3.53;;
38693;SDS011;24447;43.460;25.744;2023-08-31T02:53:38;7.80;;;3.85;;
38693;SDS011;24447;43.460;25.744;2023-08-31T02:56:04;6.93;;;4.47;;
38693;SDS011;24447;43.460;25.744;2023-08-31T02:58:30;5.93;;;3.25;;
38693;SDS011;24447;43.460;25.744;2023-08-31T03:01:05;7.53;;;4.97;;
38693;SDS011;24447;43.460;25.744;2023-08-31T03:03:39;11.63;;;3.80;;
38693;SDS011;24447;43.460;25.744;2023-08-31T03:06:06;9.27;;;4.78;;
38693;SDS011;24447;43.460;25.744;2023-08-31T03:08:35;7.35;;;3.55;;
38693;SDS011;24447;43.460;25.744;2023-08-31T03:11:02;8.60;;;4.43;;
38693;SDS011;24447;43.460;25.744;2023-08-31T03:13:29;11.50;;;5.40;;
38693;SDS011;24447;43.460;25.744;2023-08-31T03:15:55;5.35;;;3.53;;
38693;SDS011;24447;43.460;25.744;2023-08-31T03:18:21;12.05;;;4.18;;
38693;SDS011;24447;43.460;25.744;2023-08-31T03:20:48;12.00;;;4.30;;
38693;SDS011;24447;43.460;25.744;2023-08-31T03:23:14;6.70;;;3.45;;
38693;SDS011;24447;43.460;25.744;2023-08-31T03:25:40;14.40;;;5.65;;
38693;SDS011;24447;43.460;25.744;2023-08-31T03:28:06;5.38;;;3.80;;
38693;SDS011;24447;43.460;25.744;2023-08-31T03:30:32;8.60;;;3.50;;
38693;SDS011;24447;43.460;25.744;2023-08-31T03:32:58;7.22;;;4.07;;
38693;SDS011;24447;43.460;25.744;2023-08-31T03:35:24;5.07;;;3.33;;
38693;SDS011;24447;43.460;25.744;2023-08-31T03:37:52;10.00;;;3.72;;
38693;SDS011;24447;43.460;25.744;2023-08-31T03:40:19;8.75;;;3.60;;
38693;SDS011;24447;43.460;25.744;2023-08-31T03:42:45;6.93;;;3.97;;
38693;SDS011;24447;43.460;25.744;2023-08-31T03:45:11;6.53;;;3.70;;
38693;SDS011;24447;43.460;25.744;2023-08-31T03:47:37;5.75;;;3.47;;
38693;SDS011;24447;43.460;25.744;2023-08-31T03:50:03;6.90;;;3.65;;
38693;SDS011;24447;43.460;25.744;2023-08-31T03:52:30;6.57;;;3.80;;
38693;SDS011;24447;43.460;25.744;2023-08-31T03:54:56;7.22;;;3.50;;
38693;SDS011;24447;43.460;25.744;2023-08-31T03:57:22;8.25;;;4.45;;
38693;SDS011;24447;43.460;25.744;2023-08-31T03:59:48;9.38;;;4.05;;
38693;SDS011;24447;43.460;25.744;2023-08-31T04:02:14;12.02;;;4.22;;
38693;SDS011;24447;43.460;25.744;2023-08-31T04:04:40;7.70;;;4.03;;
38693;SDS011;24447;43.460;25.744;2023-08-31T04:07:05;9.02;;;4.38;;
38693;SDS011;24447;43.460;25.744;2023-08-31T04:09:32;12.80;;;6.07;;
38693;SDS011;24447;43.460;25.744;2023-08-31T04:11:58;11.57;;;5.18;;
38693;SDS011;24447;43.460;25.744;2023-08-31T04:14:27;19.25;;;5.95;;
38693;SDS011;24447;43.460;25.744;2023-08-31T04:16:56;21.75;;;6.05;;
38693;SDS011;24447;43.460;25.744;2023-08-31T04:19:22;15.27;;;6.03;;
38693;SDS011;24447;43.460;25.744;2023-08-31T04:21:49;11.35;;;4.97;;
38693;SDS011;24447;43.460;25.744;2023-08-31T04:24:15;15.40;;;5.80;;
38693;SDS011;24447;43.460;25.744;2023-08-31T04:26:40;18.45;;;6.05;;
38693;SDS011;24447;43.460;25.744;2023-08-31T04:29:06;17.58;;;6.45;;
38693;SDS011;24447;43.460;25.744;2023-08-31T04:31:32;22.60;;;6.82;;
38693;SDS011;24447;43.460;25.744;2023-08-31T04:33:58;12.93;;;6.15;;
38693;SDS011;24447;43.460;25.744;2023-08-31T04:36:24;14.23;;;6.45;;
38693;SDS011;24447;43.460;25.744;2023-08-31T04:38:54;11.60;;;5.20;;
38693;SDS011;24447;43.460;25.744;2023-08-31T04:41:19;12.00;;;6.47;;
38693;SDS011;24447;43.460;25.744;2023-08-31T04:43:46;13.13;;;6.50;;
38693;SDS011;24447;43.460;25.744;2023-08-31T04:46:15;18.10;;;6.05;;
38693;SDS011;24447;43.460;25.744;2023-08-31T04:48:41;19.20;;;6.13;;
38693;SDS011;24447;43.460;25.744;2023-08-31T04:51:09;19.67;;;7.28;;
38693;SDS011;24447;43.460;25.744;2023-08-31T04:53:59;16.60;;;6.13;;
38693;SDS011;24447;43.460;25.744;2023-08-31T04:56:29;10.38;;;5.38;;
38693;SDS011;24447;43.460;25.744;2023-08-31T04:58:59;15.50;;;6.82;;
38693;SDS011;24447;43.460;25.744;2023-08-31T05:01:25;20.15;;;6.65;;
38693;SDS011;24447;43.460;25.744;2023-08-31T05:03:51;15.18;;;5.40;;
38693;SDS011;24447;43.460;25.744;2023-08-31T05:06:17;11.68;;;5.28;;
38693;SDS011;24447;43.460;25.744;2023-08-31T05:08:43;12.80;;;6.07;;
38693;SDS011;24447;43.460;25.744;2023-08-31T05:11:09;13.48;;;5.93;;
38693;SDS011;24447;43.460;25.744;2023-08-31T05:13:35;12.45;;;6.43;;
38693;SDS011;24447;43.460;25.744;2023-08-31T05:16:02;13.77;;;5.30;;
38693;SDS011;24447;43.460;25.744;2023-08-31T05:18:28;10.98;;;5.53;;
38693;SDS011;24447;43.460;25.744;2023-08-31T05:20:54;12.77;;;5.93;;
38693;SDS011;24447;43.460;25.744;2023-08-31T05:23:20;15.68;;;6.38;;
38693;SDS011;24447;43.460;25.744;2023-08-31T05:25:46;14.27;;;6.20;;
38693;SDS011;24447;43.460;25.744;2023-08-31T05:28:12;21.80;;;6.38;;
38693;SDS011;24447;43.460;25.744;2023-08-31T05:30:47;13.65;;;5.43;;
38693;SDS011;24447;43.460;25.744;2023-08-31T05:33:17;15.82;;;6.93;;
38693;SDS011;24447;43.460;25.744;2023-08-31T05:35:44;16.17;;;7.72;;
38693;SDS011;24447;43.460;25.744;2023-08-31T05:38:10;12.57;;;5.80;;
38693;SDS011;24447;43.460;25.744;2023-08-31T05:40:36;13.75;;;7.15;;
38693;SDS011;24447;43.460;25.744;2023-08-31T05:43:02;20.58;;;8.50;;
38693;SDS011;24447;43.460;25.744;2023-08-31T05:45:32;12.95;;;6.72;;
38693;SDS011;24447;43.460;25.744;2023-08-31T05:47:58;18.88;;;8.23;;
38693;SDS011;24447;43.460;25.744;2023-08-31T05:50:25;17.40;;;7.75;;
38693;SDS011;24447;43.460;25.744;2023-08-31T05:52:52;15.52;;;7.25;;
38693;SDS011;24447;43.460;25.744;2023-08-31T05:55:17;16.88;;;8.32;;
38693;SDS011;24447;43.460;25.744;2023-08-31T05:57:43;13.48;;;7.63;;
38693;SDS011;24447;43.460;25.744;2023-08-31T06:00:09;21.50;;;8.20;;
38693;SDS011;24447;43.460;25.744;2023-08-31T06:02:36;16.38;;;7.65;;
38693;SDS011;24447;43.460;25.744;2023-08-31T06:05:02;15.82;;;7.75;;
38693;SDS011;24447;43.460;25.744;2023-08-31T06:07:29;20.33;;;10.27;;
38693;SDS011;24447;43.460;25.744;2023-08-31T06:09:55;21.05;;;9.15;;
38693;SDS011;24447;43.460;25.744;2023-08-31T06:12:21;18.42;;;8.45;;
38693;SDS011;24447;43.460;25.744;2023-08-31T06:14:47;20.48;;;7.95;;
38693;SDS011;24447;43.460;25.744;2023-08-31T06:17:13;18.02;;;8.13;;
38693;SDS011;24447;43.460;25.744;2023-08-31T06:19:40;19.35;;;8.45;;
38693;SDS011;24447;43.460;25.744;2023-08-31T06:22:06;17.05;;;7.90;;
38693;SDS011;24447;43.460;25.744;2023-08-31T06:24:32;12.18;;;6.68;;
38693;SDS011;24447;43.460;25.744;2023-08-31T06:26:59;14.80;;;6.35;;
38693;SDS011;24447;43.460;25.744;2023-08-31T06:29:25;13.48;;;6.25;;
38693;SDS011;24447;43.460;25.744;2023-08-31T06:31:51;14.15;;;6.05;;
38693;SDS011;24447;43.460;25.744;2023-08-31T06:34:17;13.68;;;6.20;;
38693;SDS011;24447;43.460;25.744;2023-08-31T06:36:43;12.30;;;6.43;;
38693;SDS011;24447;43.460;25.744;2023-08-31T06:39:09;10.60;;;5.30;;
38693;SDS011;24447;43.460;25.744;2023-08-31T06:41:35;10.70;;;5.35;;
38693;SDS011;24447;43.460;25.744;2023-08-31T06:44:04;9.93;;;5.53;;
38693;SDS011;24447;43.460;25.744;2023-08-31T06:46:30;10.43;;;4.45;;
38693;SDS011;24447;43.460;25.744;2023-08-31T06:49:03;16.77;;;6.05;;
38693;SDS011;24447;43.460;25.744;2023-08-31T06:51:30;11.63;;;6.07;;
38693;SDS011;24447;43.460;25.744;2023-08-31T06:53:56;13.73;;;6.72;;
38693;SDS011;24447;43.460;25.744;2023-08-31T06:56:29;13.35;;;6.72;;
38693;SDS011;24447;43.460;25.744;2023-08-31T06:58:55;9.95;;;5.28;;
38693;SDS011;24447;43.460;25.744;2023-08-31T07:01:21;11.65;;;5.35;;
38693;SDS011;24447;43.460;25.744;2023-08-31T07:03:47;13.57;;;5.97;;
38693;SDS011;24447;43.460;25.744;2023-08-31T07:06:13;7.20;;;4.35;;
38693;SDS011;24447;43.460;25.744;2023-08-31T07:08:39;15.50;;;7.18;;
38693;SDS011;24447;43.460;25.744;2023-08-31T07:11:06;11.65;;;6.03;;
38693;SDS011;24447;43.460;25.744;2023-08-31T07:13:32;11.93;;;5.38;;
38693;SDS011;24447;43.460;25.744;2023-08-31T07:15:57;13.38;;;5.78;;
38693;SDS011;24447;43.460;25.744;2023-08-31T07:18:23;9.65;;;3.97;;
38693;SDS011;24447;43.460;25.744;2023-08-31T07:20:49;11.70;;;5.75;;
38693;SDS011;24447;43.460;25.744;2023-08-31T07:23:15;11.07;;;5.18;;
38693;SDS011;24447;43.460;25.744;2023-08-31T07:25:41;9.80;;;4.55;;
38693;SDS011;24447;43.460;25.744;2023-08-31T07:28:07;7.25;;;3.55;;
38693;SDS011;24447;43.460;25.744;2023-08-31T07:30:33;10.77;;;5.57;;
38693;SDS011;24447;43.460;25.744;2023-08-31T07:32:59;7.65;;;4.07;;
38693;SDS011;24447;43.460;25.744;2023-08-31T07:35:28;12.47;;;5.03;;
38693;SDS011;24447;43.460;25.744;2023-08-31T07:37:54;8.00;;;3.85;;
38693;SDS011;24447;43.460;25.744;2023-08-31T07:40:20;7.95;;;4.07;;
38693;SDS011;24447;43.460;25.744;2023-08-31T07:42:46;11.48;;;4.78;;
38693;SDS011;24447;43.460;25.744;2023-08-31T07:45:12;6.90;;;3.47;;
38693;SDS011;24447;43.460;25.744;2023-08-31T07:47:38;8.90;;;4.43;;
38693;SDS011;24447;43.460;25.744;2023-08-31T07:50:04;9.45;;;4.63;;
38693;SDS011;24447;43.460;25.744;2023-08-31T07:52:31;7.38;;;3.78;;
38693;SDS011;24447;43.460;25.744;2023-08-31T07:54:57;8.25;;;4.00;;
38693;SDS011;24447;43.460;25.744;2023-08-31T07:57:23;8.93;;;4.03;;
38693;SDS011;24447;43.460;25.744;2023-08-31T07:59:49;7.93;;;3.60;;
38693;SDS011;24447;43.460;25.744;2023-08-31T08:02:15;13.00;;;4.45;;
38693;SDS011;24447;43.460;25.744;2023-08-31T08:04:41;7.95;;;3.65;;
38693;SDS011;24447;43.460;25.744;2023-08-31T08:07:07;7.28;;;3.28;;
38693;SDS011;24447;43.460;25.744;2023-08-31T08:09:34;7.93;;;3.92;;
38693;SDS011;24447;43.460;25.744;2023-08-31T08:12:00;7.82;;;4.07;;
38693;SDS011;24447;43.460;25.744;2023-08-31T08:14:28;8.15;;;4.00;;
38693;SDS011;24447;43.460;25.744;2023-08-31T08:16:54;6.80;;;3.72;;
38693;SDS011;24447;43.460;25.744;2023-08-31T08:19:21;4.60;;;2.80;;
38693;SDS011;24447;43.460;25.744;2023-08-31T08:21:48;11.55;;;4.28;;
38693;SDS011;24447;43.460;25.744;2023-08-31T08:24:14;8.57;;;4.55;;
38693;SDS011;24447;43.460;25.744;2023-08-31T08:26:40;5.88;;;2.80;;
38693;SDS011;24447;43.460;25.744;2023-08-31T08:29:06;5.85;;;3.83;;
38693;SDS011;24447;43.460;25.744;2023-08-31T08:31:32;8.05;;;4.20;;
38693;SDS011;24447;43.460;25.744;2023-08-31T08:33:58;4.78;;;3.28;;
38693;SDS011;24447;43.460;25.744;2023-08-31T08:36:24;8.13;;;3.33;;
38693;SDS011;24447;43.460;25.744;2023-08-31T08:38:49;7.82;;;3.67;;
38693;SDS011;24447;43.460;25.744;2023-08-31T08:41:15;8.38;;;4.20;;
38693;SDS011;24447;43.460;25.744;2023-08-31T08:43:44;5.97;;;3.20;;
38693;SDS011;24447;43.460;25.744;2023-08-31T08:46:12;10.88;;;4.57;;
38693;SDS011;24447;43.460;25.744;2023-08-31T08:48:38;4.57;;;2.80;;
38693;SDS011;24447;43.460;25.744;2023-08-31T08:51:04;7.88;;;3.58;;
38693;SDS011;24447;43.460;25.744;2023-08-31T08:53:32;3.88;;;2.25;;
38693;SDS011;24447;43.460;25.744;2023-08-31T08:55:58;6.22;;;3.42;;
38693;SDS011;24447;43.460;25.744;2023-08-31T08:58:24;8.63;;;3.92;;
38693;SDS011;24447;43.460;25.744;2023-08-31T09:00:50;6.22;;;2.55;;
38693;SDS011;24447;43.460;25.744;2023-08-31T09:03:17;6.43;;;2.80;;
38693;SDS011;24447;43.460;25.744;2023-08-31T09:05:43;6.57;;;3.55;;
38693;SDS011;24447;43.460;25.744;2023-08-31T09:08:09;9.90;;;4.70;;
38693;SDS011;24447;43.460;25.744;2023-08-31T09:10:38;6.60;;;3.08;;
38693;SDS011;24447;43.460;25.744;2023-08-31T09:13:14;7.03;;;3.63;;
38693;SDS011;24447;43.460;25.744;2023-08-31T09:15:47;8.02;;;3.58;;
38693;SDS011;24447;43.460;25.744;2023-08-31T09:18:24;3.97;;;2.95;;
38693;SDS011;24447;43.460;25.744;2023-08-31T09:20:55;7.85;;;3.55;;
38693;SDS011;24447;43.460;25.744;2023-08-31T09:25:51;4.63;;;2.90;;
38693;SDS011;24447;43.460;25.744;2023-08-31T09:28:22;5.95;;;3.25;;
38693;SDS011;24447;43.460;25.744;2023-08-31T09:30:51;9.20;;;3.65;;
38693;SDS011;24447;43.460;25.744;2023-08-31T09:33:19;3.65;;;2.75;;
38693;SDS011;24447;43.460;25.744;2023-08-31T09:35:49;10.10;;;3.92;;
38693;SDS011;24447;43.460;25.744;2023-08-31T09:38:17;5.03;;;3.20;;
38693;SDS011;24447;43.460;25.744;2023-08-31T09:40:43;10.40;;;3.58;;
38693;SDS011;24447;43.460;25.744;2023-08-31T09:43:09;7.47;;;3.15;;
38693;SDS011;24447;43.460;25.744;2023-08-31T09:45:35;11.10;;;3.20;;
38693;SDS011;24447;43.460;25.744;2023-08-31T09:48:02;4.82;;;3.25;;
38693;SDS011;24447;43.460;25.744;2023-08-31T09:50:29;8.60;;;2.85;;
38693;SDS011;24447;43.460;25.744;2023-08-31T09:52:56;6.18;;;4.22;;
38693;SDS011;24447;43.460;25.744;2023-08-31T09:55:29;6.25;;;3.10;;
38693;SDS011;24447;43.460;25.744;2023-08-31T09:57:57;12.23;;;3.17;;
38693;SDS011;24447;43.460;25.744;2023-08-31T10:00:25;6.00;;;2.75;;
38693;SDS011;24447;43.460;25.744;2023-08-31T10:02:51;4.90;;;3.13;;
38693;SDS011;24447;43.460;25.744;2023-08-31T10:05:19;7.18;;;2.90;;
38693;SDS011;24447;43.460;25.744;2023-08-31T10:07:45;6.13;;;3.00;;
38693;SDS011;24447;43.460;25.744;2023-08-31T10:10:12;5.05;;;2.95;;
38693;SDS011;24447;43.460;25.744;2023-08-31T10:12:39;5.40;;;3.13;;
38693;SDS011;24447;43.460;25.744;2023-08-31T10:15:05;5.35;;;2.30;;
38693;SDS011;24447;43.460;25.744;2023-08-31T10:17:32;8.38;;;3.20;;
38693;SDS011;24447;43.460;25.744;2023-08-31T10:19:58;6.00;;;3.20;;
38693;SDS011;24447;43.460;25.744;2023-08-31T10:22:24;6.38;;;3.17;;
38693;SDS011;24447;43.460;25.744;2023-08-31T10:24:57;6.07;;;2.85;;
38693;SDS011;24447;43.460;25.744;2023-08-31T10:27:28;5.38;;;2.90;;
38693;SDS011;24447;43.460;25.744;2023-08-31T10:30:45;7.18;;;3.85;;
38693;SDS011;24447;43.460;25.744;2023-08-31T10:38:14;7.38;;;2.38;;
38693;SDS011;24447;43.460;25.744;2023-08-31T10:40:41;4.47;;;2.33;;
38693;SDS011;24447;43.460;25.744;2023-08-31T10:43:16;3.60;;;1.90;;
38693;SDS011;24447;43.460;25.744;2023-08-31T10:45:45;4.72;;;1.73;;
38693;SDS011;24447;43.460;25.744;2023-08-31T10:48:11;2.35;;;1.88;;
38693;SDS011;24447;43.460;25.744;2023-08-31T10:50:44;2.17;;;1.60;;
38693;SDS011;24447;43.460;25.744;2023-08-31T10:53:14;5.28;;;2.45;;
38693;SDS011;24447;43.460;25.744;2023-08-31T10:55:50;4.03;;;1.95;;
38693;SDS011;24447;43.460;25.744;2023-08-31T10:58:19;2.80;;;1.47;;
38693;SDS011;24447;43.460;25.744;2023-08-31T11:03:17;5.07;;;1.73;;
38693;SDS011;24447;43.460;25.744;2023-08-31T11:05:50;5.82;;;2.70;;
38693;SDS011;24447;43.460;25.744;2023-08-31T11:08:21;1.63;;;1.50;;
38693;SDS011;24447;43.460;25.744;2023-08-31T11:10:48;10.15;;;3.65;;
38693;SDS011;24447;43.460;25.744;2023-08-31T11:13:18;2.42;;;1.80;;
38693;SDS011;24447;43.460;25.744;2023-08-31T11:15:45;3.17;;;1.45;;
38693;SDS011;24447;43.460;25.744;2023-08-31T11:18:11;5.57;;;1.70;;
38693;SDS011;24447;43.460;25.744;2023-08-31T11:23:07;2.15;;;1.23;;
38693;SDS011;24447;43.460;25.744;2023-08-31T11:25:33;2.30;;;1.90;;
38693;SDS011;24447;43.460;25.744;2023-08-31T11:28:03;2.28;;;1.50;;
38693;SDS011;24447;43.460;25.744;2023-08-31T11:30:31;4.72;;;2.13;;
38693;SDS011;24447;43.460;25.744;2023-08-31T11:33:01;2.50;;;1.98;;
38693;SDS011;24447;43.460;25.744;2023-08-31T11:35:37;3.60;;;2.17;;
38693;SDS011;24447;43.460;25.744;2023-08-31T11:38:06;2.22;;;1.52;;
38693;SDS011;24447;43.460;25.744;2023-08-31T11:40:32;1.85;;;1.05;;
38693;SDS011;24447;43.460;25.744;2023-08-31T11:42:58;1.55;;;1.17;;
38693;SDS011;24447;43.460;25.744;2023-08-31T11:45:28;4.28;;;2.33;;
38693;SDS011;24447;43.460;25.744;2023-08-31T11:47:55;2.28;;;1.45;;
38693;SDS011;24447;43.460;25.744;2023-08-31T11:50:21;3.45;;;1.95;;
38693;SDS011;24447;43.460;25.744;2023-08-31T11:52:47;1.70;;;1.15;;
38693;SDS011;24447;43.460;25.744;2023-08-31T11:55:14;3.28;;;1.65;;
38693;SDS011;24447;43.460;25.744;2023-08-31T11:57:48;1.85;;;1.08;;
38693;SDS011;24447;43.460;25.744;2023-08-31T12:00:16;6.10;;;1.45;;
38693;SDS011;24447;43.460;25.744;2023-08-31T12:02:42;1.98;;;1.67;;
38693;SDS011;24447;43.460;25.744;2023-08-31T12:05:11;4.40;;;1.63;;
38693;SDS011;24447;43.460;25.744;2023-08-31T12:07:40;1.75;;;0.95;;
38693;SDS011;24447;43.460;25.744;2023-08-31T12:10:09;2.03;;;1.15;;
38693;SDS011;24447;43.460;25.744;2023-08-31T12:12:35;2.25;;;1.23;;
38693;SDS011;24447;43.460;25.744;2023-08-31T12:15:02;2.55;;;1.63;;
38693;SDS011;24447;43.460;25.744;2023-08-31T12:17:29;3.35;;;1.98;;
38693;SDS011;24447;43.460;25.744;2023-08-31T12:20:02;2.35;;;1.65;;
38693;SDS011;24447;43.460;25.744;2023-08-31T12:22:31;2.95;;;1.42;;
38693;SDS011;24447;43.460;25.744;2023-08-31T12:24:58;1.30;;;1.10;;
38693;SDS011;24447;43.460;25.744;2023-08-31T12:27:23;1.45;;;1.40;;
38693;SDS011;24447;43.460;25.744;2023-08-31T12:29:49;5.32;;;2.83;;
38693;SDS011;24447;43.460;25.744;2023-08-31T12:32:16;4.25;;;1.60;;
38693;SDS011;24447;43.460;25.744;2023-08-31T12:34:45;2.38;;;1.55;;
38693;SDS011;24447;43.460;25.744;2023-08-31T12:37:10;0.85;;;0.82;;
38693;SDS011;24447;43.460;25.744;2023-08-31T12:39:37;1.45;;;1.35;;
38693;SDS011;24447;43.460;25.744;2023-08-31T12:42:03;1.35;;;0.95;;
38693;SDS011;24447;43.460;25.744;2023-08-31T12:44:29;4.43;;;1.88;;
38693;SDS011;24447;43.460;25.744;2023-08-31T12:46:56;2.15;;;1.25;;
38693;SDS011;24447;43.460;25.744;2023-08-31T12:49:22;2.60;;;1.02;;
38693;SDS011;24447;43.460;25.744;2023-08-31T12:51:48;8.20;;;2.25;;
38693;SDS011;24447;43.460;25.744;2023-08-31T12:54:15;2.72;;;1.42;;
38693;SDS011;24447;43.460;25.744;2023-08-31T12:56:41;4.57;;;2.92;;
38693;SDS011;24447;43.460;25.744;2023-08-31T12:59:08;2.35;;;1.85;;
38693;SDS011;24447;43.460;25.744;2023-08-31T13:01:34;1.58;;;1.48;;
38693;SDS011;24447;43.460;25.744;2023-08-31T13:04:01;6.88;;;2.88;;
38693;SDS011;24447;43.460;25.744;2023-08-31T13:06:28;1.65;;;1.50;;
38693;SDS011;24447;43.460;25.744;2023-08-31T13:08:53;1.55;;;1.45;;
38693;SDS011;24447;43.460;25.744;2023-08-31T13:11:19;6.75;;;1.83;;
38693;SDS011;24447;43.460;25.744;2023-08-31T13:13:48;3.80;;;1.63;;
38693;SDS011;24447;43.460;25.744;2023-08-31T13:16:16;2.30;;;1.42;;
38693;SDS011;24447;43.460;25.744;2023-08-31T13:18:42;2.20;;;1.58;;
38693;SDS011;24447;43.460;25.744;2023-08-31T13:21:08;2.00;;;1.20;;
38693;SDS011;24447;43.460;25.744;2023-08-31T13:23:34;1.23;;;1.02;;
38693;SDS011;24447;43.460;25.744;2023-08-31T13:26:00;2.05;;;1.40;;
38693;SDS011;24447;43.460;25.744;2023-08-31T13:28:26;4.50;;;1.40;;
38693;SDS011;24447;43.460;25.744;2023-08-31T13:30:56;2.35;;;1.77;;
38693;SDS011;24447;43.460;25.744;2023-08-31T13:33:26;2.00;;;1.20;;
38693;SDS011;24447;43.460;25.744;2023-08-31T13:35:58;3.78;;;2.13;;
38693;SDS011;24447;43.460;25.744;2023-08-31T13:38:24;3.03;;;1.77;;
38693;SDS011;24447;43.460;25.744;2023-08-31T13:40:56;2.28;;;1.77;;
38693;SDS011;24447;43.460;25.744;2023-08-31T13:43:22;1.80;;;1.60;;
38693;SDS011;24447;43.460;25.744;2023-08-31T13:45:49;7.47;;;1.42;;
38693;SDS011;24447;43.460;25.744;2023-08-31T13:48:15;2.28;;;1.48;;
38693;SDS011;24447;43.460;25.744;2023-08-31T13:50:41;1.77;;;1.23;;
38693;SDS011;24447;43.460;25.744;2023-08-31T13:53:08;7.63;;;1.65;;
38693;SDS011;24447;43.460;25.744;2023-08-31T13:55:34;1.25;;;1.20;;
38693;SDS011;24447;43.460;25.744;2023-08-31T13:58:04;0.93;;;0.77;;
38693;SDS011;24447;43.460;25.744;2023-08-31T14:00:34;5.95;;;2.38;;
38693;SDS011;24447;43.460;25.744;2023-08-31T14:03:00;2.65;;;1.25;;
38693;SDS011;24447;43.460;25.744;2023-08-31T14:05:31;4.30;;;2.35;;
38693;SDS011;24447;43.460;25.744;2023-08-31T14:07:57;4.85;;;2.83;;
38693;SDS011;24447;43.460;25.744;2023-08-31T14:10:26;1.33;;;1.23;;
38693;SDS011;24447;43.460;25.744;2023-08-31T14:12:52;1.90;;;1.58;;
38693;SDS011;24447;43.460;25.744;2023-08-31T14:15:18;1.70;;;1.40;;
38693;SDS011;24447;43.460;25.744;2023-08-31T14:17:44;1.52;;;1.42;;
38693;SDS011;24447;43.460;25.744;2023-08-31T14:20:10;3.33;;;1.40;;
38693;SDS011;24447;43.460;25.744;2023-08-31T14:22:36;5.20;;;1.77;;
38693;SDS011;24447;43.460;25.744;2023-08-31T14:25:08;2.60;;;1.48;;
38693;SDS011;24447;43.460;25.744;2023-08-31T14:27:37;2.05;;;1.83;;
38693;SDS011;24447;43.460;25.744;2023-08-31T14:30:04;3.90;;;2.15;;
38693;SDS011;24447;43.460;25.744;2023-08-31T14:32:33;1.25;;;0.90;;
38693;SDS011;24447;43.460;25.744;2023-08-31T14:34:59;3.97;;;2.28;;
38693;SDS011;24447;43.460;25.744;2023-08-31T14:37:25;2.25;;;1.50;;
38693;SDS011;24447;43.460;25.744;2023-08-31T14:39:51;2.67;;;1.63;;
38693;SDS011;24447;43.460;25.744;2023-08-31T14:42:17;3.45;;;1.73;;
38693;SDS011;24447;43.460;25.744;2023-08-31T14:44:46;1.85;;;1.55;;
38693;SDS011;24447;43.460;25.744;2023-08-31T14:47:12;2.75;;;1.60;;
38693;SDS011;24447;43.460;25.744;2023-08-31T14:49:38;4.75;;;1.42;;
38693;SDS011;24447;43.460;25.744;2023-08-31T14:52:08;2.00;;;1.38;;
38693;SDS011;24447;43.460;25.744;2023-08-31T14:54:34;2.63;;;1.25;;
38693;SDS011;24447;43.460;25.744;2023-08-31T14:57:00;1.63;;;1.45;;